Time;durP1;ratioP1;P1;durP2;ratioP2;P2;SDS_P1;SDS_P2;PMS_P1;PMS_P2;Temp;Humidity;BMP_temperature;BMP_pressure;BME280_temperature;BME280_humidity;BME280_pressure;Samples;Min_cycle;Max_cycle;Signal;HPM_P1;HPM_P2
2023/04/04 00:02:01;;;;;;;3.38;1.75;;;2.70;99.90;;;;;;5094624;27;20088;-65
2023/04/04 00:04:27;;;;;;;4.15;2.17;;;2.60;99.90;;;;;;5108290;27;20415;-64
2023/04/04 00:06:53;;;;;;;5.13;1.98;;;2.60;99.90;;;;;;5106652;27;20092;-63
2023/04/04 00:09:20;;;;;;;3.38;1.77;;;2.60;99.90;;;;;;5144615;27;20156;-66
2023/04/04 00:11:45;;;;;;;3.97;2.20;;;2.60;99.90;;;;;;5106553;27;20046;-67
2023/04/04 00:14:12;;;;;;;4.50;2.47;;;2.60;99.90;;;;;;5110926;27;20417;-67
2023/04/04 00:16:37;;;;;;;5.93;2.40;;;2.60;99.90;;;;;;5111983;27;20102;-65
2023/04/04 00:19:03;;;;;;;4.53;2.30;;;2.60;99.90;;;;;;5138258;27;20062;-65
2023/04/04 00:21:29;;;;;;;3.03;1.90;;;2.50;99.90;;;;;;5108244;27;20043;-66
2023/04/04 00:23:58;;;;;;;5.38;2.88;;;2.50;99.90;;;;;;5099892;27;20035;-65
2023/04/04 00:26:25;;;;;;;3.47;2.10;;;2.50;99.90;;;;;;5119573;27;20070;-66
2023/04/04 00:28:51;;;;;;;4.55;2.17;;;2.50;99.90;;;;;;5101773;27;20047;-64
2023/04/04 00:31:18;;;;;;;2.60;2.00;;;2.50;99.90;;;;;;5135942;27;20497;-64
2023/04/04 00:33:44;;;;;;;5.43;2.17;;;2.40;99.90;;;;;;5104571;27;20099;-67
2023/04/04 00:36:10;;;;;;;7.03;2.25;;;2.40;99.90;;;;;;5095857;27;20474;-68
2023/04/04 00:38:36;;;;;;;4.47;2.22;;;2.40;99.90;;;;;;5113634;27;20035;-66
2023/04/04 00:41:02;;;;;;;4.15;1.95;;;2.30;99.90;;;;;;5133951;27;20039;-65
2023/04/04 00:43:28;;;;;;;3.90;2.33;;;2.30;99.90;;;;;;5157591;27;20030;-66
2023/04/04 00:45:54;;;;;;;4.00;2.50;;;2.30;99.90;;;;;;5140891;27;20082;-66
2023/04/04 00:48:20;;;;;;;7.95;2.42;;;2.20;99.90;;;;;;5112583;27;20456;-66
2023/04/04 00:50:46;;;;;;;5.20;2.22;;;2.20;99.90;;;;;;5112689;27;20035;-65
2023/04/04 00:53:12;;;;;;;4.15;2.50;;;2.20;99.90;;;;;;5110533;27;20062;-65
2023/04/04 00:55:38;;;;;;;6.00;3.00;;;2.20;99.90;;;;;;5095257;27;20118;-63
2023/04/04 00:58:04;;;;;;;6.30;2.85;;;2.20;99.90;;;;;;5109458;27;20066;-64
2023/04/04 01:00:33;;;;;;;4.65;2.53;;;2.20;99.90;;;;;;5132360;27;20068;-65
2023/04/04 01:02:59;;;;;;;5.30;2.53;;;2.20;99.90;;;;;;5115201;27;20104;-64
2023/04/04 01:05:25;;;;;;;5.45;3.03;;;2.20;99.90;;;;;;5142365;27;20040;-65
2023/04/04 01:07:51;;;;;;;4.72;2.85;;;2.20;99.90;;;;;;5108889;27;20050;-66
2023/04/04 01:10:17;;;;;;;4.72;2.67;;;2.20;99.90;;;;;;5108618;27;20523;-64
2023/04/04 01:12:42;;;;;;;5.18;2.63;;;2.20;99.90;;;;;;5109524;27;20043;-64
2023/04/04 01:15:08;;;;;;;5.38;2.70;;;2.10;99.90;;;;;;5106385;27;20039;-64
2023/04/04 01:17:34;;;;;;;5.18;2.58;;;2.20;99.90;;;;;;5105614;27;20470;-63
2023/04/04 01:20:07;;;;;;;3.38;2.65;;;2.10;99.90;;;;;;5112786;27;20035;-66
2023/04/04 01:22:33;;;;;;;;;;;2.10;99.90;;;;;;5128673;27;20063;-64
2023/04/04 01:25:02;;;;;;;6.15;2.80;;;2.10;99.90;;;;;;5105665;27;19916;-63
2023/04/04 01:27:28;;;;;;;4.25;2.72;;;2.10;99.90;;;;;;5111896;27;20039;-65
2023/04/04 01:29:54;;;;;;;4.15;2.70;;;2.10;99.90;;;;;;5102680;27;20505;-67
2023/04/04 01:32:42;;;;;;;3.95;2.58;;;2.10;99.90;;;;;;5102507;27;20049;-65
2023/04/04 01:35:26;;;;;;;5.78;3.47;;;2.00;99.90;;;;;;5139694;27;20497;-65
2023/04/04 01:38:17;;;;;;;5.07;3.05;;;2.00;99.90;;;;;;5129296;27;20055;-65
2023/04/04 01:40:47;;;;;;;9.43;2.97;;;2.00;99.90;;;;;;5067954;28;20052;-64
2023/04/04 01:43:13;;;;;;;5.43;2.70;;;2.00;99.90;;;;;;5105072;28;20056;-66
2023/04/04 01:45:39;;;;;;;6.05;3.13;;;2.00;99.90;;;;;;5095812;28;20051;-64
2023/04/04 01:48:05;;;;;;;5.70;3.35;;;2.00;99.90;;;;;;5071524;28;20498;-65
2023/04/04 01:50:31;;;;;;;8.02;3.13;;;2.00;99.90;;;;;;5070168;28;20115;-64
2023/04/04 01:52:56;;;;;;;4.90;3.03;;;2.00;99.90;;;;;;5102476;28;20059;-66
2023/04/04 01:55:22;;;;;;;7.38;3.53;;;2.00;99.90;;;;;;5101512;28;20040;-64
2023/04/04 01:57:48;;;;;;;4.70;3.00;;;2.00;99.90;;;;;;5087457;28;20044;-64
2023/04/04 02:00:14;;;;;;;6.38;3.53;;;2.00;99.90;;;;;;5070923;28;20071;-65
2023/04/04 02:02:40;;;;;;;5.07;3.20;;;1.90;99.90;;;;;;5070953;28;20517;-65
2023/04/04 02:05:06;;;;;;;6.82;3.30;;;1.90;99.90;;;;;;5068448;28;20052;-64
2023/04/04 02:07:31;;;;;;;7.53;3.28;;;1.90;99.90;;;;;;5066895;28;20033;-65
2023/04/04 02:09:57;;;;;;;6.28;3.80;;;1.90;99.90;;;;;;5053285;28;20051;-64
2023/04/04 02:12:23;;;;;;;6.85;3.33;;;1.90;99.90;;;;;;5093702;28;20079;-65
2023/04/04 02:14:49;;;;;;;6.22;3.40;;;1.90;99.90;;;;;;5099587;28;20118;-66
2023/04/04 02:17:15;;;;;;;7.95;3.50;;;1.90;99.90;;;;;;5076024;27;20994;-65
2023/04/04 02:19:41;;;;;;;5.68;3.97;;;1.90;99.90;;;;;;5094275;27;20049;-65
2023/04/04 02:22:06;;;;;;;8.00;3.67;;;1.90;99.90;;;;;;5133161;27;20044;-64
2023/04/04 02:24:32;;;;;;;5.15;3.22;;;1.90;99.90;;;;;;5100665;27;20050;-63
2023/04/04 02:26:58;;;;;;;5.07;3.30;;;1.90;99.90;;;;;;5110286;27;20116;-66
2023/04/04 02:29:23;;;;;;;6.28;3.90;;;1.80;99.90;;;;;;5103831;27;20401;-63
2023/04/04 02:31:49;;;;;;;6.43;3.45;;;1.80;99.90;;;;;;5102711;28;20046;-64
2023/04/04 02:34:14;;;;;;;7.75;3.38;;;1.80;99.90;;;;;;5102645;27;20040;-65
2023/04/04 02:36:40;;;;;;;6.10;3.25;;;1.80;99.90;;;;;;5104395;28;20070;-67
2023/04/04 02:39:06;;;;;;;6.55;3.20;;;1.80;99.90;;;;;;5110028;27;20468;-63
2023/04/04 02:41:32;;;;;;;4.30;2.75;;;1.70;99.90;;;;;;5102991;28;20083;-66
2023/04/04 02:43:57;;;;;;;7.63;2.90;;;1.80;99.90;;;;;;5102988;28;20151;-65
2023/04/04 02:46:23;;;;;;;5.35;3.17;;;1.70;99.90;;;;;;5085518;27;20035;-66
2023/04/04 02:48:50;;;;;;;7.07;3.45;;;1.70;99.90;;;;;;5107644;27;20111;-64
2023/04/04 02:51:17;;;;;;;6.80;3.03;;;1.70;99.90;;;;;;5108970;28;20486;-65
2023/04/04 02:53:42;;;;;;;5.78;3.55;;;1.70;99.90;;;;;;5112091;27;20493;-65
2023/04/04 02:56:08;;;;;;;5.05;2.95;;;1.70;99.90;;;;;;5112143;28;20033;-64
2023/04/04 02:58:33;;;;;;;5.68;2.90;;;1.60;99.90;;;;;;5112422;28;20042;-64
2023/04/04 03:00:59;;;;;;;5.18;3.10;;;1.60;99.90;;;;;;5111672;28;20436;-64
2023/04/04 03:03:26;;;;;;;11.70;4.03;;;1.60;99.90;;;;;;5107998;27;20449;-64
2023/04/04 03:05:51;;;;;;;9.25;4.05;;;1.60;99.90;;;;;;5116789;27;20049;-66
2023/04/04 03:08:17;;;;;;;5.47;3.45;;;1.60;99.90;;;;;;5108352;27;20096;-66
2023/04/04 03:10:44;;;;;;;6.15;3.38;;;1.50;99.90;;;;;;5122822;27;20027;-64
2023/04/04 03:13:10;;;;;;;8.35;3.95;;;1.50;99.90;;;;;;5109921;27;20129;-66
2023/04/04 03:15:36;;;;;;;5.82;3.53;;;1.50;99.90;;;;;;5116415;27;20076;-65
2023/04/04 03:18:02;;;;;;;5.70;3.85;;;1.50;99.90;;;;;;5113204;27;20031;-66
2023/04/04 03:20:27;;;;;;;6.47;3.72;;;1.40;99.90;;;;;;5117018;27;20102;-66
2023/04/04 03:22:53;;;;;;;5.78;3.40;;;1.40;99.90;;;;;;5109809;27;20035;-63
2023/04/04 03:25:19;;;;;;;7.50;3.83;;;1.40;99.90;;;;;;5113158;27;20489;-63
2023/04/04 03:27:45;;;;;;;5.57;3.75;;;1.40;99.90;;;;;;5107393;27;20396;-65
2023/04/04 03:30:11;;;;;;;4.65;3.67;;;1.40;99.90;;;;;;5098220;27;20490;-65
2023/04/04 03:32:38;;;;;;;5.28;3.35;;;1.40;99.90;;;;;;5115039;27;20589;-63
2023/04/04 03:35:05;;;;;;;5.30;3.40;;;1.40;99.90;;;;;;5130412;27;20154;-67
2023/04/04 03:37:31;;;;;;;6.50;3.42;;;1.30;99.90;;;;;;5127263;27;20066;-64
2023/04/04 03:39:57;;;;;;;3.40;2.85;;;1.30;99.90;;;;;;5114213;27;20124;-66
2023/04/04 03:42:23;;;;;;;8.45;3.35;;;1.40;99.90;;;;;;5115805;27;20112;-66
2023/04/04 03:44:48;;;;;;;5.57;3.33;;;1.30;99.90;;;;;;5110901;27;20039;-65
2023/04/04 03:47:14;;;;;;;5.70;3.38;;;1.30;99.90;;;;;;5112220;27;20054;-64
2023/04/04 03:49:40;;;;;;;4.90;3.00;;;1.30;99.90;;;;;;5107889;27;20039;-66
2023/04/04 03:52:06;;;;;;;5.10;3.00;;;1.30;99.90;;;;;;5127415;27;20404;-64
2023/04/04 03:54:32;;;;;;;4.68;2.75;;;1.20;99.90;;;;;;5121404;27;20789;-66
2023/04/04 03:56:57;;;;;;;5.07;3.47;;;1.20;99.90;;;;;;5109023;27;20123;-64
2023/04/04 03:59:23;;;;;;;5.68;3.20;;;1.10;99.90;;;;;;5140493;27;20180;-64
2023/04/04 04:01:49;;;;;;;6.60;3.25;;;1.10;99.90;;;;;;5095578;27;20035;-64
2023/04/04 04:04:15;;;;;;;6.40;3.05;;;1.10;99.90;;;;;;5109178;27;20038;-65
2023/04/04 04:06:40;;;;;;;5.35;3.10;;;1.10;99.90;;;;;;5139460;27;20157;-65
2023/04/04 04:09:06;;;;;;;6.35;3.10;;;1.00;99.90;;;;;;5107832;27;20041;-64
2023/04/04 04:11:33;;;;;;;5.72;3.40;;;1.00;99.90;;;;;;5110659;27;20058;-65
2023/04/04 04:13:59;;;;;;;5.32;3.35;;;1.00;99.90;;;;;;5114101;27;20039;-65
2023/04/04 04:16:26;;;;;;;6.47;3.55;;;1.00;99.90;;;;;;5095545;27;20047;-66
2023/04/04 04:18:52;;;;;;;5.97;3.35;;;1.00;99.90;;;;;;5114508;27;20047;-63
2023/04/04 04:21:18;;;;;;;6.70;3.63;;;1.00;99.90;;;;;;5108788;27;20045;-64
2023/04/04 04:23:43;;;;;;;4.75;3.40;;;1.00;99.90;;;;;;5080491;27;20071;-65
2023/04/04 04:26:09;;;;;;;5.47;3.35;;;0.90;99.90;;;;;;5105698;27;20045;-65
2023/04/04 04:28:35;;;;;;;5.18;3.45;;;0.90;99.90;;;;;;5095461;27;20046;-64
2023/04/04 04:31:08;;;;;;;6.40;3.60;;;0.90;99.90;;;;;;5144407;27;20439;-66
2023/04/04 04:33:34;;;;;;;4.28;2.78;;;0.80;99.90;;;;;;5112202;27;20047;-65
2023/04/04 04:36:04;;;;;;;4.97;3.28;;;0.80;99.90;;;;;;5106683;27;20038;-67
2023/04/04 04:38:30;;;;;;;5.70;3.33;;;0.70;99.90;;;;;;5110303;27;20037;-64
2023/04/04 04:40:56;;;;;;;5.25;3.10;;;0.60;99.90;;;;;;5091972;27;20053;-65
2023/04/04 04:43:22;;;;;;;5.20;3.20;;;0.60;99.90;;;;;;5141935;27;20055;-64
2023/04/04 04:45:49;;;;;;;4.85;3.08;;;0.60;99.90;;;;;;5113436;27;20047;-64
2023/04/04 04:48:18;;;;;;;5.20;3.63;;;0.50;99.90;;;;;;5110278;27;20125;-64
2023/04/04 04:50:45;;;;;;;5.10;3.10;;;0.50;99.90;;;;;;5138323;27;20037;-66
2023/04/04 04:53:12;;;;;;;4.82;3.30;;;0.50;99.90;;;;;;5096224;27;20039;-66
2023/04/04 04:55:37;;;;;;;6.88;3.47;;;0.50;99.90;;;;;;5113753;27;20031;-64
2023/04/04 04:58:04;;;;;;;5.88;3.10;;;0.50;99.90;;;;;;5109198;27;20080;-64
2023/04/04 05:00:30;;;;;;;6.22;3.47;;;0.50;99.90;;;;;;5106977;27;20126;-66
2023/04/04 05:02:55;;;;;;;5.20;3.40;;;0.50;99.90;;;;;;5104784;27;20516;-64
2023/04/04 05:05:22;;;;;;;10.95;3.42;;;0.50;99.90;;;;;;5112025;27;20039;-64
2023/04/04 05:07:47;;;;;;;5.60;3.58;;;0.40;99.90;;;;;;5111627;27;20031;-65
2023/04/04 05:10:13;;;;;;;6.78;3.30;;;0.40;99.90;;;;;;5130658;27;20049;-65
2023/04/04 05:12:42;;;;;;;4.50;3.10;;;0.40;99.90;;;;;;5110278;27;20039;-66
2023/04/04 05:15:08;;;;;;;7.35;3.30;;;0.40;99.90;;;;;;5111920;27;20044;-64
2023/04/04 05:17:38;;;;;;;6.38;3.85;;;0.40;99.90;;;;;;5111576;27;20412;-63
2023/04/04 05:20:04;;;;;;;4.38;3.03;;;0.40;99.90;;;;;;5133868;27;20110;-65
2023/04/04 05:22:30;;;;;;;6.13;3.25;;;0.40;99.90;;;;;;5122597;27;20046;-65
2023/04/04 05:24:56;;;;;;;5.57;3.22;;;0.40;99.90;;;;;;5132810;27;20026;-64
2023/04/04 05:27:22;;;;;;;8.82;3.20;;;0.40;99.90;;;;;;5132280;27;20068;-62
2023/04/04 05:29:47;;;;;;;5.80;3.22;;;0.40;99.90;;;;;;5135376;27;20114;-63
2023/04/04 05:32:14;;;;;;;4.05;2.85;;;0.50;99.90;;;;;;5113110;27;20531;-64
2023/04/04 05:34:40;;;;;;;5.70;3.42;;;0.50;99.90;;;;;;5096282;27;20114;-65
2023/04/04 05:37:06;;;;;;;4.47;3.13;;;0.60;99.90;;;;;;5111733;27;20157;-65
2023/04/04 05:39:31;;;;;;;5.20;3.10;;;0.60;99.90;;;;;;5114633;27;20039;-63
2023/04/04 05:41:57;;;;;;;7.80;3.33;;;0.70;99.90;;;;;;5129936;27;20103;-64
2023/04/04 05:44:23;;;;;;;6.30;3.42;;;0.80;99.90;;;;;;5131280;27;20046;-65
2023/04/04 05:46:48;;;;;;;8.15;3.72;;;0.80;99.90;;;;;;5112727;27;20072;-65
2023/04/04 05:49:14;;;;;;;6.70;3.53;;;0.90;99.90;;;;;;5112641;27;20533;-65
2023/04/04 05:51:40;;;;;;;3.80;3.30;;;1.00;99.90;;;;;;5112791;27;20054;-65
2023/04/04 05:54:06;;;;;;;8.68;3.60;;;1.10;99.90;;;;;;5111137;27;20046;-65
2023/04/04 05:56:32;;;;;;;5.43;3.15;;;1.10;99.90;;;;;;5111980;27;20171;-66
2023/04/04 05:58:58;;;;;;;4.72;3.20;;;1.10;99.90;;;;;;5113272;27;20035;-66
2023/04/04 06:01:24;;;;;;;6.32;3.53;;;1.20;99.90;;;;;;5111295;27;20049;-66
2023/04/04 06:03:50;;;;;;;5.68;3.50;;;1.20;99.90;;;;;;5110653;27;20035;-65
2023/04/04 06:06:16;;;;;;;6.15;3.40;;;1.20;99.90;;;;;;5114799;27;20111;-66
2023/04/04 06:08:42;;;;;;;4.47;2.97;;;1.30;99.90;;;;;;5112494;27;20164;-63
2023/04/04 06:11:08;;;;;;;6.28;3.22;;;1.30;99.90;;;;;;5126847;27;20113;-64
2023/04/04 06:13:33;;;;;;;6.47;3.28;;;1.40;99.90;;;;;;5132971;27;20059;-65
2023/04/04 06:15:59;;;;;;;5.43;3.60;;;1.50;99.90;;;;;;5151641;27;20064;-65
2023/04/04 06:18:25;;;;;;;4.93;3.47;;;1.50;99.90;;;;;;5115880;27;20054;-66
2023/04/04 06:20:50;;;;;;;8.15;3.20;;;1.60;99.90;;;;;;5111814;27;20505;-64
2023/04/04 06:23:16;;;;;;;4.05;3.33;;;1.70;99.90;;;;;;5112146;27;20125;-66
2023/04/04 06:25:42;;;;;;;4.93;3.40;;;1.80;99.90;;;;;;5112299;27;20468;-65
2023/04/04 06:28:08;;;;;;;6.47;3.60;;;1.90;99.90;;;;;;5112728;27;20447;-65
2023/04/04 06:30:37;;;;;;;8.98;3.60;;;2.00;99.90;;;;;;5112394;27;20039;-63
2023/04/04 06:33:04;;;;;;;7.05;3.40;;;2.10;99.90;;;;;;5111781;27;20130;-66
2023/04/04 06:35:30;;;;;;;5.10;3.20;;;2.20;99.90;;;;;;5112882;28;20105;-64
2023/04/04 06:37:56;;;;;;;4.63;3.00;;;2.30;99.90;;;;;;5112405;27;20043;-65
2023/04/04 06:40:22;;;;;;;5.03;3.30;;;2.50;99.90;;;;;;5115178;27;20039;-64
2023/04/04 06:42:52;;;;;;;5.50;3.38;;;2.60;99.90;;;;;;5099532;27;20104;-66
2023/04/04 06:45:18;;;;;;;7.32;3.40;;;2.60;99.90;;;;;;5116747;27;20046;-65
2023/04/04 06:47:44;;;;;;;8.35;3.17;;;2.60;99.90;;;;;;5116771;27;20469;-65
2023/04/04 06:50:10;;;;;;;4.45;3.22;;;2.60;99.90;;;;;;5116887;27;20120;-65
2023/04/04 06:52:36;;;;;;;7.05;3.17;;;2.70;99.90;;;;;;5116793;27;20545;-65
2023/04/04 06:55:02;;;;;;;6.80;3.10;;;3.00;99.90;;;;;;5099399;27;20451;-66
2023/04/04 06:57:28;;;;;;;7.53;3.40;;;3.20;99.90;;;;;;5116612;27;20103;-65
2023/04/04 06:59:54;;;;;;;6.43;3.17;;;3.40;99.90;;;;;;5116763;27;20267;-66
2023/04/04 07:02:20;;;;;;;6.03;2.95;;;3.60;99.90;;;;;;5116450;27;20079;-67
2023/04/04 07:04:45;;;;;;;4.70;3.10;;;3.70;99.90;;;;;;5116742;27;20114;-65
2023/04/04 07:07:11;;;;;;;6.40;2.50;;;3.90;99.90;;;;;;5116587;27;20043;-66
2023/04/04 07:09:37;;;;;;;5.22;2.70;;;4.10;99.90;;;;;;5116586;27;20038;-66
2023/04/04 07:12:03;;;;;;;7.45;3.00;;;4.30;99.90;;;;;;5116462;27;20451;-65
2023/04/04 07:14:28;;;;;;;8.15;3.15;;;4.40;99.90;;;;;;5116291;27;20043;-66
2023/04/04 07:16:54;;;;;;;6.10;2.47;;;4.60;99.90;;;;;;5116076;27;20047;-66
2023/04/04 07:19:22;;;;;;;3.97;2.30;;;4.80;99.90;;;;;;5116173;27;20039;-66
2023/04/04 07:21:49;;;;;;;7.40;2.70;;;4.90;99.90;;;;;;5098809;27;20047;-65
2023/04/04 07:24:14;;;;;;;5.43;2.45;;;5.00;99.90;;;;;;5115897;27;20035;-66
2023/04/04 07:26:40;;;;;;;5.75;2.95;;;5.00;99.90;;;;;;5116325;27;20500;-66
2023/04/04 07:29:06;;;;;;;5.25;2.28;;;5.20;99.90;;;;;;5098644;27;20772;-64
2023/04/04 07:31:31;;;;;;;6.20;2.13;;;5.20;99.90;;;;;;5116195;27;20078;-66
2023/04/04 07:33:57;;;;;;;7.03;2.70;;;5.30;99.90;;;;;;5115704;27;20043;-67
2023/04/04 07:36:22;;;;;;;4.80;2.47;;;5.50;99.90;;;;;;5115806;27;20035;-65
2023/04/04 07:38:48;;;;;;;3.05;2.20;;;5.60;99.90;;;;;;5116168;27;20508;-64
2023/04/04 07:41:14;;;;;;;4.32;1.98;;;5.80;99.90;;;;;;5115753;27;20156;-66
2023/04/04 07:43:40;;;;;;;3.55;1.80;;;6.00;99.90;;;;;;5115815;27;20049;-67
2023/04/04 07:46:05;;;;;;;9.10;1.70;;;6.10;99.90;;;;;;5115149;27;20059;-66
2023/04/04 07:48:31;;;;;;;7.30;1.88;;;6.30;99.90;;;;;;5114378;27;20039;-65
2023/04/04 07:50:59;;;;;;;3.90;1.70;;;6.40;99.90;;;;;;5114272;28;20482;-64
2023/04/04 07:53:24;;;;;;;5.93;1.90;;;6.50;99.90;;;;;;5110498;27;20035;-66
2023/04/04 07:55:50;;;;;;;5.22;2.00;;;6.60;99.90;;;;;;5132702;27;20043;-66
2023/04/04 07:58:15;;;;;;;3.03;1.90;;;6.70;99.90;;;;;;5114076;27;20500;-68
2023/04/04 08:00:41;;;;;;;5.28;1.77;;;6.80;99.90;;;;;;5114213;27;20023;-65
2023/04/04 08:03:07;;;;;;;7.22;1.83;;;6.90;99.90;;;;;;5096744;27;20058;-68
2023/04/04 08:05:32;;;;;;;4.28;2.00;;;6.90;99.90;;;;;;5113833;27;20035;-64
2023/04/04 08:07:58;;;;;;;3.88;2.10;;;6.90;99.90;;;;;;5113938;28;20031;-65
2023/04/04 08:10:24;;;;;;;4.57;1.90;;;7.00;99.90;;;;;;5113437;27;20110;-65
2023/04/04 08:12:50;;;;;;;3.08;1.95;;;7.10;99.90;;;;;;5113603;27;20035;-68
2023/04/04 08:15:15;;;;;;;4.85;1.90;;;7.30;99.90;;;;;;5113875;27;20445;-65
2023/04/04 08:17:42;;;;;;;3.88;1.90;;;7.30;99.90;;;;;;5113834;27;20035;-65
2023/04/04 08:20:08;;;;;;;5.38;1.90;;;7.40;99.90;;;;;;5113765;28;20062;-67
2023/04/04 08:22:34;;;;;;;4.85;1.85;;;7.60;99.90;;;;;;5113728;27;20055;-67
2023/04/04 08:24:59;;;;;;;6.85;1.75;;;7.70;99.90;;;;;;5113719;28;20035;-67
2023/04/04 08:27:25;;;;;;;7.93;2.35;;;7.90;99.90;;;;;;5096700;27;20046;-65
2023/04/04 08:29:51;;;;;;;4.35;1.60;;;8.10;99.90;;;;;;5113856;27;20083;-66
2023/04/04 08:32:17;;;;;;;3.55;1.75;;;8.30;99.90;;;;;;5113754;27;20046;-65
2023/04/04 08:34:43;;;;;;;4.32;1.65;;;8.40;99.90;;;;;;5113845;27;20082;-65
2023/04/04 08:37:09;;;;;;;1.45;1.02;;;8.60;99.90;;;;;;5113548;28;20109;-65
2023/04/04 08:39:35;;;;;;;4.47;1.55;;;8.80;99.50;;;;;;5113369;27;20046;-66
2023/04/04 08:42:06;;;;;;;4.63;2.13;;;9.00;99.50;;;;;;5113726;28;20043;-63
2023/04/04 08:44:36;;;;;;;4.90;2.10;;;9.10;98.70;;;;;;5096613;27;20374;-66
2023/04/04 08:47:07;;;;;;;4.70;1.73;;;9.20;98.60;;;;;;5072753;28;1087325;-67
2023/04/04 08:49:36;;;;;;;6.97;1.70;;;9.20;98.10;;;;;;5110902;28;20044;-63
2023/04/04 08:52:05;;;;;;;3.35;1.60;;;9.30;97.70;;;;;;5111151;28;20484;-66
2023/04/04 08:54:33;;;;;;;2.78;1.50;;;9.50;97.80;;;;;;5110836;28;20055;-65
2023/04/04 08:56:59;;;;;;;3.97;1.40;;;9.60;97.00;;;;;;5110933;28;20047;-66
2023/04/04 08:59:25;;;;;;;4.10;1.80;;;9.50;96.30;;;;;;5110455;28;20044;-64
2023/04/04 09:02:09;;;;;;;5.47;1.77;;;9.60;96.40;;;;;;5110091;28;20118;-66
2023/04/04 09:04:35;;;;;;;4.07;1.60;;;9.50;96.20;;;;;;5093964;28;20059;-64
2023/04/04 09:07:03;;;;;;;3.45;1.55;;;9.70;96.00;;;;;;5110736;28;20027;-66
2023/04/04 09:09:31;;;;;;;3.70;1.90;;;9.70;94.50;;;;;;5110569;28;20047;-66
2023/04/04 09:12:00;;;;;;;3.90;1.80;;;9.80;95.00;;;;;;5110577;28;20039;-64
2023/04/04 09:14:26;;;;;;;4.70;1.60;;;9.90;95.30;;;;;;5110425;28;20459;-66
2023/04/04 09:16:52;;;;;;;3.40;1.75;;;10.20;95.50;;;;;;5110581;28;20373;-66
2023/04/04 09:19:18;;;;;;;4.60;1.58;;;10.50;95.50;;;;;;5110733;28;20047;-63
2023/04/04 09:21:47;;;;;;;3.08;1.85;;;10.70;95.10;;;;;;5110164;28;20043;-67
2023/04/04 09:24:14;;;;;;;4.28;1.67;;;10.90;94.90;;;;;;5110535;28;20043;-66
2023/04/04 09:26:51;;;;;;;6.13;3.08;;;10.90;93.30;;;;;;5110475;28;20497;-65
2023/04/04 09:29:21;;;;;;;4.95;2.58;;;11.10;93.30;;;;;;5110539;28;20039;-67
2023/04/04 09:31:48;;;;;;;4.18;1.90;;;11.20;92.60;;;;;;5110124;28;20062;-66
2023/04/04 09:34:16;;;;;;;4.60;2.05;;;11.10;92.00;;;;;;5093541;28;20480;-68
2023/04/04 09:36:44;;;;;;;2.50;1.60;;;10.90;91.60;;;;;;5109943;28;20107;-63
2023/04/04 09:39:10;;;;;;;7.45;2.83;;;10.90;91.90;;;;;;5110401;28;20043;-65
2023/04/04 09:41:39;;;;;;;5.20;1.80;;;11.10;92.30;;;;;;5110062;28;20411;-66
2023/04/04 09:44:08;;;;;;;5.63;2.60;;;11.20;91.50;;;;;;5105542;28;20039;-65
2023/04/04 09:46:35;;;;;;;6.53;3.00;;;11.30;91.20;;;;;;5109264;28;20055;-66
2023/04/04 09:49:00;;;;;;;5.28;2.00;;;11.50;91.10;;;;;;5109556;28;20063;-66
2023/04/04 09:51:34;;;;;;;3.55;1.60;;;11.60;91.00;;;;;;5109686;28;20044;-66
2023/04/04 09:54:01;;;;;;;4.35;1.70;;;11.80;91.30;;;;;;5110953;28;20035;-67
2023/04/04 09:56:27;;;;;;;3.45;1.80;;;12.10;91.30;;;;;;5109801;28;20507;-68
2023/04/04 09:58:53;;;;;;;4.53;1.95;;;12.10;90.40;;;;;;5109641;28;20071;-67
2023/04/04 10:01:19;;;;;;;2.42;1.50;;;12.10;90.30;;;;;;5109851;28;20051;-67
2023/04/04 10:03:53;;;;;;;2.63;1.10;;;12.20;90.30;;;;;;5109078;28;20047;-64
2023/04/04 10:06:20;;;;;;;4.20;2.00;;;12.40;89.40;;;;;;5109679;28;20039;-69
2023/04/04 10:08:47;;;;;;;3.83;1.58;;;12.50;87.30;;;;;;5109491;28;20046;-66
2023/04/04 10:11:13;;;;;;;3.90;1.30;;;12.40;85.80;;;;;;5109418;28;20119;-65
2023/04/04 10:13:40;;;;;;;4.50;1.50;;;12.40;85.30;;;;;;5108986;28;20139;-68
2023/04/04 10:16:07;;;;;;;3.85;1.73;;;12.50;86.70;;;;;;5110497;28;20076;-66
2023/04/04 10:18:34;;;;;;;3.40;1.50;;;12.70;86.90;;;;;;5092671;28;20114;-66
2023/04/04 10:21:02;;;;;;;4.18;1.75;;;12.90;84.90;;;;;;5092594;28;20035;-68
2023/04/04 10:23:28;;;;;;;5.25;1.70;;;13.10;86.10;;;;;;5109537;28;20096;-65
2023/04/04 10:25:55;;;;;;;4.43;1.55;;;13.30;84.90;;;;;;5110670;28;20436;-64
2023/04/04 10:28:21;;;;;;;3.80;1.73;;;13.40;82.90;;;;;;5109691;28;20114;-66
2023/04/04 10:31:23;;;;;;;3.33;1.80;;;13.60;83.80;;;;;;5092436;28;20110;-66
2023/04/04 10:34:11;;;;;;;4.72;1.70;;;13.60;82.30;;;;;;5109357;28;20063;-68
2023/04/04 10:36:52;;;;;;;2.85;1.65;;;13.90;81.40;;;;;;5092357;28;20406;-64
2023/04/04 10:39:45;;;;;;;3.72;1.88;;;13.90;77.90;;;;;;5109326;28;20035;-66
2023/04/04 10:42:14;;;;;;;3.40;1.60;;;13.90;77.50;;;;;;5109291;28;20379;-66
2023/04/04 10:44:40;;;;;;;4.30;1.65;;;14.00;79.10;;;;;;5109695;28;20027;-66
2023/04/04 10:47:22;;;;;;;4.13;1.77;;;14.10;77.40;;;;;;5108989;28;20047;-66
2023/04/04 10:49:50;;;;;;;3.63;1.98;;;14.20;76.10;;;;;;5109075;28;20035;-66
2023/04/04 10:52:21;;;;;;;2.92;1.50;;;14.20;75.70;;;;;;5109385;28;20050;-67
2023/04/04 10:54:51;;;;;;;3.87;1.60;;;14.40;76.10;;;;;;5109093;28;20088;-67
2023/04/04 10:57:17;;;;;;;2.60;1.75;;;14.50;76.00;;;;;;5109006;28;20046;-65
2023/04/04 11:00:08;;;;;;;3.72;1.70;;;14.90;76.70;;;;;;5109319;28;20044;-64
2023/04/04 11:02:54;;;;;;;3.53;1.88;;;15.20;72.30;;;;;;5108986;28;20096;-67
2023/04/04 11:05:21;;;;;;;6.43;2.58;;;15.40;74.80;;;;;;5109169;28;20050;-67
2023/04/04 11:07:50;;;;;;;4.18;1.98;;;15.50;75.70;;;;;;5108936;28;20078;-68
2023/04/04 11:10:26;;;;;;;7.20;2.42;;;15.70;75.60;;;;;;5108827;28;20036;-65
2023/04/04 11:12:54;;;;;;;2.65;1.63;;;15.80;73.70;;;;;;5109243;28;20410;-67
2023/04/04 11:15:24;;;;;;;4.75;2.22;;;15.80;72.90;;;;;;5108938;28;20040;-68
2023/04/04 11:18:01;;;;;;;4.00;2.20;;;15.70;69.80;;;;;;5108751;28;20040;-67
2023/04/04 11:20:30;;;;;;;4.28;2.00;;;15.30;67.80;;;;;;5108621;28;20407;-66
2023/04/04 11:23:14;;;;;;;4.03;1.88;;;15.10;71.40;;;;;;5108737;28;20071;-67
2023/04/04 11:25:52;;;;;;;4.15;1.73;;;15.50;73.00;;;;;;5110661;28;20354;-66
2023/04/04 11:28:43;;;;;;;5.70;2.13;;;15.70;71.70;;;;;;5113051;28;20432;-66
2023/04/04 11:31:19;;;;;;;4.18;2.08;;;16.00;71.20;;;;;;5095563;28;20497;-67
2023/04/04 11:33:57;;;;;;;4.35;2.28;;;16.10;70.40;;;;;;5110014;28;20172;-67
2023/04/04 11:36:44;;;;;;;2.70;1.70;;;16.20;68.90;;;;;;5156177;27;20926;-64
2023/04/04 11:39:30;;;;;;;5.32;1.92;;;16.10;69.90;;;;;;5094606;28;20048;-68
2023/04/04 11:42:06;;;;;;;3.25;1.75;;;16.10;68.20;;;;;;5112138;27;20134;-68
2023/04/04 11:44:39;;;;;;;4.22;1.88;;;16.00;68.30;;;;;;5112528;27;20466;-67
2023/04/04 11:47:04;;;;;;;4.60;2.10;;;16.00;68.20;;;;;;5094953;28;20052;-65
2023/04/04 11:49:34;;;;;;;3.80;1.73;;;16.10;67.90;;;;;;5095395;28;20035;-65
2023/04/04 11:52:13;;;;;;;4.15;1.80;;;15.90;67.50;;;;;;5111872;28;20035;-67
2023/04/04 11:54:40;;;;;;;5.53;2.20;;;16.00;68.20;;;;;;5111285;28;20036;-67
2023/04/04 11:57:10;;;;;;;3.53;2.10;;;15.70;66.00;;;;;;5111828;28;20071;-67
2023/04/04 11:59:40;;;;;;;5.68;2.50;;;15.40;65.40;;;;;;5112263;28;20053;-66
2023/04/04 12:02:06;;;;;;;4.20;2.20;;;15.20;65.50;;;;;;5111588;28;20067;-66
2023/04/04 12:04:33;;;;;;;4.68;2.15;;;15.10;65.80;;;;;;5111627;28;20035;-66
2023/04/04 12:07:00;;;;;;;3.72;1.98;;;15.20;66.90;;;;;;5112869;28;20035;-66
2023/04/04 12:09:27;;;;;;;5.13;2.13;;;15.30;66.40;;;;;;5112086;28;20425;-66
2023/04/04 12:11:54;;;;;;;3.58;2.00;;;15.30;67.10;;;;;;5094870;28;20051;-68
2023/04/04 12:14:21;;;;;;;6.05;2.80;;;15.00;64.30;;;;;;5112263;28;20046;-69
2023/04/04 12:16:48;;;;;;;3.70;2.20;;;14.80;66.70;;;;;;5112239;28;20043;-66
2023/04/04 12:19:15;;;;;;;4.35;2.05;;;15.10;67.50;;;;;;5111735;28;20078;-65
2023/04/04 12:21:41;;;;;;;3.30;1.92;;;14.90;66.70;;;;;;5111971;28;20473;-68
2023/04/04 12:24:07;;;;;;;4.88;2.08;;;14.80;67.10;;;;;;5111921;28;20119;-65
2023/04/04 12:26:38;;;;;;;3.80;2.30;;;14.60;65.60;;;;;;5111814;28;20486;-69
2023/04/04 12:29:04;;;;;;;4.03;2.20;;;14.40;66.10;;;;;;5112012;28;20492;-65
2023/04/04 12:31:30;;;;;;;6.03;2.03;;;14.60;67.50;;;;;;5111779;28;20402;-67
2023/04/04 12:33:56;;;;;;;4.22;1.77;;;14.70;66.40;;;;;;5111835;28;20039;-67
2023/04/04 12:36:28;;;;;;;3.03;1.65;;;14.80;64.80;;;;;;5110807;28;20040;-68
2023/04/04 12:39:21;;;;;;;3.92;2.00;;;14.90;64.70;;;;;;5111069;28;20087;-68
2023/04/04 12:41:52;;;;;;;2.67;1.60;;;14.70;63.40;;;;;;5107402;28;20039;-69
2023/04/04 12:44:31;;;;;;;3.85;1.90;;;14.90;64.40;;;;;;5111323;28;20039;-64
2023/04/04 12:46:59;;;;;;;4.10;2.00;;;14.90;64.30;;;;;;5094176;28;20047;-67
2023/04/04 12:49:29;;;;;;;3.38;1.80;;;15.20;65.30;;;;;;5111148;28;20122;-64
2023/04/04 12:51:55;;;;;;;2.97;1.85;;;15.30;64.00;;;;;;5094207;28;20047;-67
2023/04/04 12:54:28;;;;;;;3.67;1.95;;;15.30;64.20;;;;;;5111312;28;20039;-68
2023/04/04 12:57:00;;;;;;;3.03;1.65;;;15.40;63.80;;;;;;5111258;28;20504;-65
2023/04/04 12:59:34;;;;;;;3.97;1.80;;;15.20;63.20;;;;;;5111120;28;20052;-64